createdAt,value
2023-03-27T00:01:24.149Z,2.13
2023-03-27T00:03:53.468Z,1.90
2023-03-27T00:06:21.933Z,2.83
2023-03-27T00:08:51.273Z,2.90
2023-03-27T00:11:19.297Z,3.17
2023-03-27T00:13:50.185Z,2.95
2023-03-27T00:16:20.287Z,3.05
2023-03-27T00:18:47.309Z,3.95
2023-03-27T00:21:14.466Z,4.25
2023-03-27T00:23:42.437Z,5.35
2023-03-27T00:26:12.092Z,3.47
2023-03-27T00:28:38.982Z,3.13
2023-03-27T00:31:10.876Z,3.75
2023-03-27T00:33:37.686Z,3.88
2023-03-27T00:36:04.653Z,3.75
2023-03-27T00:38:31.505Z,3.55
2023-03-27T00:40:58.407Z,3.03
2023-03-27T00:43:34.098Z,4.10
2023-03-27T00:46:14.686Z,2.70
2023-03-27T00:48:47.090Z,4.55
2023-03-27T00:53:42.647Z,4.70
2023-03-27T00:56:10.531Z,3.50
2023-03-27T00:58:53.733Z,3.30
2023-03-27T01:01:23.879Z,2.78
2023-03-27T01:03:53.884Z,3.28
2023-03-27T01:06:21.938Z,3.13
2023-03-27T01:08:48.880Z,4.22
2023-03-27T01:11:21.215Z,3.58
2023-03-27T01:16:41.023Z,3.00
2023-03-27T01:19:26.408Z,2.97
2023-03-27T01:22:07.369Z,3.53
2023-03-27T01:24:49.005Z,3.65
2023-03-27T01:27:26.425Z,3.83
2023-03-27T01:29:59.224Z,3.33
2023-03-27T01:32:36.393Z,3.38
2023-03-27T01:35:33.810Z,3.45
2023-03-27T01:38:03.917Z,3.78
2023-03-27T01:40:41.706Z,4.97
2023-03-27T01:43:17.133Z,2.63
2023-03-27T01:46:05.778Z,2.83
2023-03-27T01:48:50.641Z,2.35
2023-03-27T01:51:24.645Z,2.85
2023-03-27T01:54:07.868Z,2.85
2023-03-27T01:56:39.550Z,3.20
2023-03-27T01:59:16.528Z,3.10
2023-03-27T02:01:53.567Z,2.67
2023-03-27T02:04:29.097Z,3.42
2023-03-27T02:07:01.808Z,4.20
2023-03-27T02:09:53.187Z,3.08
2023-03-27T02:12:43.402Z,2.83
2023-03-27T02:15:23.934Z,3.10
2023-03-27T02:18:10.192Z,3.00
2023-03-27T02:20:38.765Z,3.15
2023-03-27T02:23:06.601Z,2.60
2023-03-27T02:25:39.733Z,3.55
2023-03-27T02:28:29.299Z,2.47
2023-03-27T02:31:33.919Z,3.20
2023-03-27T02:34:20.123Z,2.97
2023-03-27T02:37:16.330Z,2.80
2023-03-27T02:39:51.755Z,3.20
2023-03-27T02:42:20.914Z,2.00
2023-03-27T02:45:10.337Z,2.03
2023-03-27T02:47:43.038Z,2.50
2023-03-27T02:50:16.443Z,2.72
2023-03-27T02:52:48.183Z,3.00
2023-03-27T02:55:23.461Z,2.30
2023-03-27T02:57:59.591Z,2.80
2023-03-27T03:03:28.008Z,2.42
2023-03-27T03:05:57.915Z,2.50
2023-03-27T03:08:25.505Z,2.80
2023-03-27T03:10:52.238Z,3.05
2023-03-27T03:13:19.606Z,2.92
2023-03-27T03:15:46.652Z,3.10
2023-03-27T03:18:14.177Z,3.17
2023-03-27T03:20:41.280Z,2.85
2023-03-27T03:23:08.058Z,2.33
2023-03-27T03:25:34.721Z,3.20
2023-03-27T03:28:01.378Z,3.28
2023-03-27T03:30:30.380Z,2.05
2023-03-27T03:32:57.484Z,3.13
2023-03-27T03:35:25.198Z,2.72
2023-03-27T03:37:52.869Z,2.90
2023-03-27T03:40:20.447Z,3.65
2023-03-27T03:42:48.602Z,2.95
2023-03-27T03:45:17.246Z,2.92
2023-03-27T03:47:44.977Z,2.40
2023-03-27T03:50:12.872Z,2.95
2023-03-27T03:52:39.934Z,2.50
2023-03-27T03:55:07.385Z,4.88
2023-03-27T03:57:34.085Z,2.20
2023-03-27T04:00:01.148Z,3.20
2023-03-27T04:02:29.061Z,2.90
2023-03-27T04:04:59.976Z,3.30
2023-03-27T04:07:31.655Z,3.05
2023-03-27T04:10:01.651Z,3.38
2023-03-27T04:12:28.716Z,3.75
2023-03-27T04:14:55.652Z,3.17
2023-03-27T04:17:26.349Z,3.13
2023-03-27T04:19:55.364Z,3.88
2023-03-27T04:22:23.656Z,4.57
2023-03-27T04:24:50.677Z,4.10
2023-03-27T04:27:17.983Z,4.40
2023-03-27T04:29:47.370Z,5.65
2023-03-27T04:32:19.358Z,5.70
2023-03-27T04:34:48.337Z,5.28
2023-03-27T04:37:15.174Z,6.18
2023-03-27T04:39:46.378Z,5.78
2023-03-27T04:42:16.871Z,5.90
2023-03-27T04:44:46.492Z,5.95
2023-03-27T04:47:13.333Z,6.68
2023-03-27T04:49:49.726Z,6.10
2023-03-27T04:52:18.073Z,6.10
2023-03-27T04:54:45.047Z,8.02
2023-03-27T04:57:12.034Z,6.20
2023-03-27T04:59:38.816Z,6.15
2023-03-27T05:02:06.521Z,5.72
2023-03-27T05:04:33.563Z,6.20
2023-03-27T05:07:00.885Z,7.43
2023-03-27T05:09:27.598Z,6.05
2023-03-27T05:11:54.556Z,6.07
2023-03-27T05:14:23.605Z,5.40
2023-03-27T05:16:52.311Z,5.75
2023-03-27T05:19:20.307Z,5.57
2023-03-27T05:21:47.248Z,4.45
2023-03-27T05:24:15.506Z,4.57
2023-03-27T05:26:43.375Z,5.72
2023-03-27T05:29:10.552Z,4.70
2023-03-27T05:31:37.636Z,4.25
2023-03-27T05:34:05.736Z,3.72
2023-03-27T05:36:35.505Z,4.35
2023-03-27T05:39:02.301Z,3.47
2023-03-27T05:41:28.932Z,3.67
2023-03-27T05:43:55.698Z,4.40
2023-03-27T05:46:22.444Z,3.33
2023-03-27T05:48:49.327Z,4.03
2023-03-27T05:51:16.614Z,3.72
2023-03-27T05:53:43.668Z,3.78
2023-03-27T05:56:10.718Z,4.55
2023-03-27T05:58:37.535Z,4.35
2023-03-27T06:01:04.897Z,4.07
2023-03-27T06:03:34.990Z,4.13
2023-03-27T06:06:12.195Z,3.08
2023-03-27T06:08:39.190Z,4.07
2023-03-27T06:11:10.488Z,4.05
2023-03-27T06:13:38.036Z,4.32
2023-03-27T06:16:05.818Z,4.75
2023-03-27T06:18:33.740Z,4.55
2023-03-27T06:21:01.836Z,4.00
2023-03-27T06:23:28.514Z,3.80
2023-03-27T06:25:55.527Z,3.60
2023-03-27T06:28:22.747Z,3.53
2023-03-27T06:30:50.399Z,3.72
2023-03-27T06:33:17.144Z,4.25
2023-03-27T06:35:53.130Z,5.07
2023-03-27T06:38:21.135Z,3.95
2023-03-27T06:40:47.888Z,4.57
2023-03-27T06:43:18.176Z,4.28
2023-03-27T06:45:47.420Z,3.90
2023-03-27T06:48:21.458Z,3.75
2023-03-27T06:50:51.556Z,4.72
2023-03-27T06:53:27.111Z,4.55
2023-03-27T06:55:56.878Z,4.05
2023-03-27T06:58:24.668Z,2.88
2023-03-27T07:00:51.790Z,2.85
2023-03-27T07:03:21.475Z,3.45
2023-03-27T07:05:49.063Z,2.97
2023-03-27T07:08:24.124Z,2.70
2023-03-27T07:11:07.937Z,3.10
2023-03-27T07:13:38.689Z,3.00
2023-03-27T07:16:05.918Z,2.75
2023-03-27T07:18:32.765Z,2.10
2023-03-27T07:20:59.856Z,2.70
2023-03-27T07:23:26.897Z,2.42
2023-03-27T07:26:00.602Z,2.20
2023-03-27T07:28:27.802Z,2.50
2023-03-27T07:30:54.410Z,1.77
2023-03-27T07:33:21.303Z,2.85
2023-03-27T07:35:49.332Z,2.03
2023-03-27T07:38:17.546Z,1.77
2023-03-27T07:40:46.607Z,2.58
2023-03-27T07:43:13.836Z,2.60
2023-03-27T07:45:42.084Z,1.55
2023-03-27T07:48:12.192Z,2.00
2023-03-27T07:50:39.162Z,1.15
2023-03-27T07:53:08.840Z,1.50
2023-03-27T07:55:38.051Z,1.50
2023-03-27T07:58:07.017Z,1.40
2023-03-27T08:00:36.001Z,1.30
2023-03-27T08:03:11.739Z,1.95
2023-03-27T08:05:38.541Z,1.30
2023-03-27T08:08:05.265Z,1.60
2023-03-27T08:10:33.799Z,1.42
2023-03-27T08:13:01.123Z,1.60
2023-03-27T08:15:27.719Z,1.30
2023-03-27T08:17:56.670Z,1.08
2023-03-27T08:20:24.170Z,1.60
2023-03-27T08:22:54.299Z,1.00
2023-03-27T08:25:24.577Z,1.55
2023-03-27T08:27:51.278Z,1.30
2023-03-27T08:30:19.114Z,2.80
2023-03-27T08:32:46.465Z,1.42
2023-03-27T08:35:13.679Z,0.80
2023-03-27T08:37:41.508Z,0.52
2023-03-27T08:40:19.092Z,0.80
2023-03-27T08:42:50.431Z,1.25
2023-03-27T08:45:42.927Z,1.17
2023-03-27T08:48:21.912Z,1.08
2023-03-27T08:51:03.740Z,1.42
2023-03-27T08:53:56.380Z,1.27
2023-03-27T08:56:25.441Z,0.80
2023-03-27T08:58:53.436Z,1.85
2023-03-27T09:01:22.825Z,1.00
2023-03-27T09:03:55.911Z,0.77
2023-03-27T09:06:38.336Z,0.80
2023-03-27T09:09:20.048Z,1.02
2023-03-27T09:12:02.665Z,1.52
2023-03-27T09:14:36.638Z,0.60
2023-03-27T09:17:11.996Z,0.70
2023-03-27T09:19:48.471Z,3.20
2023-03-27T09:22:22.673Z,1.13
2023-03-27T09:24:54.258Z,0.70
2023-03-27T09:27:26.699Z,2.78
2023-03-27T09:32:35.104Z,1.60
2023-03-27T09:35:01.998Z,1.30
2023-03-27T09:37:28.732Z,1.08
2023-03-27T09:39:58.857Z,1.80
2023-03-27T09:42:32.055Z,1.15
2023-03-27T09:45:03.427Z,0.75
2023-03-27T09:48:01.523Z,2.15
2023-03-27T09:50:41.499Z,0.80
2023-03-27T09:53:08.293Z,1.73
2023-03-27T09:55:35.381Z,2.08
2023-03-27T09:58:20.611Z,2.22
2023-03-27T10:00:47.298Z,2.88
2023-03-27T10:03:18.003Z,0.98
2023-03-27T10:05:47.004Z,1.42
2023-03-27T10:08:26.657Z,1.05
2023-03-27T10:10:59.002Z,2.13
2023-03-27T10:13:29.330Z,1.13
2023-03-27T10:16:01.936Z,1.08
2023-03-27T10:18:31.815Z,1.55
2023-03-27T10:21:02.525Z,1.50
2023-03-27T10:23:41.289Z,1.00
2023-03-27T10:26:12.016Z,0.95
2023-03-27T10:28:40.902Z,0.90
2023-03-27T10:34:00.428Z,1.80
2023-03-27T10:36:27.952Z,0.75
2023-03-27T10:39:02.377Z,0.70
2023-03-27T10:41:30.888Z,0.70
2023-03-27T10:43:58.151Z,1.55
2023-03-27T10:46:28.347Z,1.20
2023-03-27T10:49:11.233Z,1.40
2023-03-27T10:51:58.057Z,0.93
2023-03-27T10:54:38.443Z,1.02
2023-03-27T10:57:23.335Z,1.17
2023-03-27T10:59:59.345Z,1.10
2023-03-27T11:02:43.024Z,0.60
2023-03-27T11:05:37.248Z,1.20
2023-03-27T11:08:21.753Z,1.90
2023-03-27T11:10:49.579Z,1.23
2023-03-27T11:13:32.414Z,1.23
2023-03-27T11:16:23.677Z,1.05
2023-03-27T11:18:57.244Z,1.00
2023-03-27T11:21:35.867Z,1.50
2023-03-27T11:24:07.380Z,0.85
2023-03-27T11:26:38.189Z,0.70
2023-03-27T11:29:16.984Z,1.25
2023-03-27T11:31:51.165Z,1.05
2023-03-27T11:34:37.023Z,0.98
2023-03-27T11:37:35.508Z,1.00
2023-03-27T11:40:20.398Z,1.00
2023-03-27T11:42:48.083Z,0.63
2023-03-27T11:45:18.087Z,0.60
2023-03-27T11:47:56.622Z,1.90
2023-03-27T11:50:35.572Z,0.95
2023-03-27T11:53:39.114Z,0.93
2023-03-27T11:56:32.228Z,1.13
2023-03-27T11:59:27.598Z,0.77
2023-03-27T12:02:00.736Z,1.35
2023-03-27T12:04:52.352Z,0.73
2023-03-27T12:07:26.282Z,0.60
2023-03-27T12:10:21.897Z,1.30
2023-03-27T12:13:02.424Z,0.90
2023-03-27T12:15:44.337Z,0.70
2023-03-27T12:18:35.872Z,1.10
2023-03-27T12:21:05.945Z,0.70
2023-03-27T12:23:58.435Z,0.80
2023-03-27T12:26:43.748Z,2.05
2023-03-27T12:29:52.082Z,3.42
2023-03-27T12:32:38.993Z,1.30
2023-03-27T12:35:11.540Z,0.93
2023-03-27T12:37:50.825Z,1.90
2023-03-27T12:40:47.866Z,0.95
2023-03-27T12:43:39.762Z,1.08
2023-03-27T12:46:24.603Z,1.05
2023-03-27T12:48:54.087Z,1.48
2023-03-27T12:51:41.336Z,1.40
2023-03-27T12:54:23.950Z,1.10
2023-03-27T12:57:13.206Z,1.17
2023-03-27T13:00:09.459Z,1.65
2023-03-27T13:03:02.797Z,0.98
2023-03-27T13:05:43.899Z,1.45
2023-03-27T13:08:26.374Z,1.48
2023-03-27T13:11:12.669Z,2.40
2023-03-27T13:14:05.223Z,1.20
2023-03-27T13:16:39.506Z,1.50
2023-03-27T13:19:41.676Z,1.30
2023-03-27T13:22:20.413Z,1.45
2023-03-27T13:25:04.393Z,1.25
2023-03-27T13:27:38.710Z,1.30
2023-03-27T13:30:07.529Z,1.83
2023-03-27T13:32:41.311Z,2.85
2023-03-27T13:35:21.092Z,1.50
2023-03-27T13:37:50.753Z,0.90
2023-03-27T13:40:31.145Z,1.27
2023-03-27T13:43:16.237Z,1.50
2023-03-27T13:45:49.909Z,1.10
2023-03-27T13:48:16.514Z,1.10
2023-03-27T13:51:01.982Z,2.03
2023-03-27T13:53:34.682Z,2.45
2023-03-27T13:56:09.858Z,1.40
2023-03-27T13:58:55.834Z,1.45
2023-03-27T14:01:34.298Z,1.30
2023-03-27T14:04:09.975Z,1.25
2023-03-27T14:07:06.590Z,1.13
2023-03-27T14:09:54.199Z,1.67
2023-03-27T14:12:49.466Z,0.80
2023-03-27T14:15:32.825Z,4.03
2023-03-27T14:18:21.267Z,1.30
2023-03-27T14:20:55.546Z,1.08
2023-03-27T14:23:28.504Z,1.10
2023-03-27T14:26:03.571Z,1.50
2023-03-27T14:28:59.050Z,1.30
2023-03-27T14:31:28.820Z,1.75
2023-03-27T14:34:12.708Z,3.75
2023-03-27T14:36:46.054Z,3.35
2023-03-27T14:39:18.890Z,1.45
2023-03-27T14:41:46.772Z,1.42
2023-03-27T14:44:13.524Z,1.55
2023-03-27T14:46:45.107Z,1.05
2023-03-27T14:49:15.719Z,1.40
2023-03-27T14:51:42.748Z,2.58
2023-03-27T14:54:39.169Z,1.00
2023-03-27T14:57:14.445Z,1.23
2023-03-27T14:59:43.994Z,1.05
2023-03-27T15:02:19.528Z,1.52
2023-03-27T15:04:46.512Z,1.40
2023-03-27T15:07:22.343Z,1.30
2023-03-27T15:10:24.360Z,1.40
2023-03-27T15:12:51.565Z,1.50
2023-03-27T15:15:31.019Z,1.10
2023-03-27T15:18:00.002Z,3.47
2023-03-27T15:20:31.864Z,1.00
2023-03-27T15:23:09.883Z,0.82
2023-03-27T15:26:04.254Z,1.55
2023-03-27T15:28:38.905Z,1.55
2023-03-27T15:31:07.542Z,1.25
2023-03-27T15:33:41.181Z,2.13
2023-03-27T15:36:26.282Z,1.10
2023-03-27T15:38:55.550Z,1.10
2023-03-27T15:41:28.445Z,1.60
2023-03-27T15:44:04.174Z,0.93
2023-03-27T15:46:43.576Z,1.60
2023-03-27T15:49:22.866Z,1.00
2023-03-27T15:51:49.545Z,0.90
2023-03-27T15:54:26.713Z,0.70
2023-03-27T15:57:09.894Z,1.00
2023-03-27T15:59:52.158Z,1.20
2023-03-27T16:02:21.272Z,1.38
2023-03-27T16:04:57.325Z,2.45
2023-03-27T16:07:30.426Z,1.80
2023-03-27T16:10:05.261Z,2.15
2023-03-27T16:12:33.879Z,2.78
2023-03-27T16:15:05.798Z,3.30
2023-03-27T16:17:44.750Z,2.28
2023-03-27T16:20:12.776Z,2.67
2023-03-27T16:22:40.509Z,1.50
2023-03-27T16:25:09.875Z,1.88
2023-03-27T16:27:49.885Z,1.80
2023-03-27T16:30:32.381Z,1.45
2023-03-27T16:33:00.098Z,1.30
2023-03-27T16:35:27.976Z,1.33
2023-03-27T16:37:55.250Z,1.27
2023-03-27T16:40:21.938Z,1.13
2023-03-27T16:42:48.552Z,1.13
2023-03-27T16:45:15.529Z,1.05
2023-03-27T16:47:42.241Z,2.30
2023-03-27T16:50:16.896Z,9.00
2023-03-27T16:52:43.525Z,1.88
2023-03-27T16:55:11.535Z,1.75
2023-03-27T16:57:38.215Z,1.17
2023-03-27T17:00:06.006Z,1.65
2023-03-27T17:02:34.979Z,1.90
2023-03-27T17:05:03.007Z,2.15
2023-03-27T17:07:29.706Z,1.85
2023-03-27T17:09:56.515Z,1.60
2023-03-27T17:12:23.257Z,1.38
2023-03-27T17:14:49.957Z,1.52
2023-03-27T17:17:16.669Z,1.92
2023-03-27T17:19:43.335Z,4.35
2023-03-27T17:22:12.622Z,1.73
2023-03-27T17:24:53.318Z,1.75
2023-03-27T17:27:22.923Z,2.33
2023-03-27T17:29:49.547Z,1.88
2023-03-27T17:32:16.402Z,1.98
2023-03-27T17:34:43.181Z,1.33
2023-03-27T17:37:09.855Z,0.80
2023-03-27T17:39:36.719Z,1.50
2023-03-27T17:42:03.671Z,1.77
2023-03-27T17:44:30.390Z,1.20
2023-03-27T17:46:57.105Z,1.55
2023-03-27T17:49:23.803Z,1.73
2023-03-27T17:51:50.656Z,1.55
2023-03-27T17:54:17.536Z,1.75
2023-03-27T17:56:44.229Z,1.33
2023-03-27T17:59:11.001Z,1.33
2023-03-27T18:01:37.802Z,2.28
2023-03-27T18:04:04.679Z,1.60
2023-03-27T18:06:31.423Z,1.30
2023-03-27T18:08:58.561Z,1.40
2023-03-27T18:11:25.893Z,1.55
2023-03-27T18:13:53.315Z,1.60
2023-03-27T18:16:21.812Z,1.17
2023-03-27T18:18:48.952Z,1.50
2023-03-27T18:21:16.679Z,1.20
2023-03-27T18:23:45.914Z,1.60
2023-03-27T18:26:13.686Z,1.42
2023-03-27T18:28:40.386Z,2.45
2023-03-27T18:31:11.960Z,1.83
2023-03-27T18:33:38.922Z,1.67
2023-03-27T18:36:11.502Z,1.67
2023-03-27T18:38:40.217Z,3.47
2023-03-27T18:41:07.486Z,1.73
2023-03-27T18:43:34.545Z,1.90
2023-03-27T18:46:06.373Z,1.88
2023-03-27T18:48:34.384Z,1.58
2023-03-27T18:51:05.828Z,2.00
2023-03-27T18:53:32.612Z,1.80
2023-03-27T18:56:00.138Z,2.67
2023-03-27T18:58:28.755Z,3.70
2023-03-27T19:00:57.002Z,3.58
2023-03-27T19:03:26.009Z,3.55
2023-03-27T19:05:53.574Z,2.22
2023-03-27T19:08:22.020Z,7.00
2023-03-27T19:10:48.963Z,11.40
2023-03-27T19:13:16.076Z,9.10
2023-03-27T19:15:42.999Z,7.00
2023-03-27T19:18:10.018Z,6.88
2023-03-27T19:20:36.730Z,6.05
2023-03-27T19:23:04.075Z,4.82
2023-03-27T19:25:34.053Z,5.45
2023-03-27T19:28:05.648Z,2.40
2023-03-27T19:30:33.205Z,2.08
2023-03-27T19:32:59.978Z,2.50
2023-03-27T19:35:26.638Z,2.47
2023-03-27T19:37:54.615Z,2.80
2023-03-27T19:40:21.859Z,3.05
2023-03-27T19:42:48.656Z,3.55
2023-03-27T19:45:16.576Z,3.63
2023-03-27T19:47:43.493Z,2.15
2023-03-27T19:50:11.149Z,2.40
2023-03-27T19:52:37.967Z,2.58
2023-03-27T19:55:05.489Z,2.70
2023-03-27T19:57:32.616Z,2.45
2023-03-27T19:59:59.258Z,2.90
2023-03-27T20:02:27.573Z,3.72
2023-03-27T20:04:54.290Z,3.22
2023-03-27T20:07:20.929Z,2.90
2023-03-27T20:09:47.679Z,2.15
2023-03-27T20:12:14.335Z,3.42
2023-03-27T20:14:41.029Z,2.92
2023-03-27T20:17:12.183Z,3.50
2023-03-27T20:19:48.737Z,4.07
2023-03-27T20:22:20.658Z,2.17
2023-03-27T20:24:48.710Z,3.45
2023-03-27T20:27:19.815Z,2.67
2023-03-27T20:29:47.263Z,2.97
2023-03-27T20:32:14.342Z,3.15
2023-03-27T20:34:41.052Z,3.22
2023-03-27T20:37:12.025Z,3.15
2023-03-27T20:39:44.723Z,1.98
2023-03-27T20:42:16.628Z,2.10
2023-03-27T20:44:47.034Z,3.38
2023-03-27T20:47:15.190Z,2.15
2023-03-27T20:49:45.661Z,2.53
2023-03-27T20:52:14.631Z,2.40
2023-03-27T20:54:41.794Z,4.45
2023-03-27T20:57:08.948Z,4.60
2023-03-27T20:59:35.918Z,3.72
2023-03-27T21:02:02.779Z,3.70
2023-03-27T21:04:31.644Z,3.50
2023-03-27T21:06:58.872Z,3.72
2023-03-27T21:09:26.994Z,3.40
2023-03-27T21:11:55.336Z,3.10
2023-03-27T21:14:22.412Z,3.15
2023-03-27T21:16:49.159Z,3.13
2023-03-27T21:19:16.032Z,3.25
2023-03-27T21:21:42.773Z,4.05
2023-03-27T21:24:09.646Z,3.22
2023-03-27T21:26:36.796Z,2.78
2023-03-27T21:29:03.981Z,2.60
2023-03-27T21:31:30.859Z,2.47
2023-03-27T21:33:57.879Z,3.15
2023-03-27T21:36:27.227Z,2.63
2023-03-27T21:38:55.764Z,2.53
2023-03-27T21:41:22.586Z,3.00
2023-03-27T21:43:49.195Z,2.03
2023-03-27T21:46:16.112Z,3.33
2023-03-27T21:48:47.732Z,2.67
2023-03-27T21:51:14.497Z,2.38
2023-03-27T21:53:41.591Z,2.83
2023-03-27T21:56:08.644Z,2.28
2023-03-27T21:58:35.329Z,3.15
2023-03-27T22:01:02.048Z,2.60
2023-03-27T22:03:29.269Z,3.00
2023-03-27T22:06:10.027Z,3.03
2023-03-27T22:08:41.500Z,2.53
2023-03-27T22:11:08.808Z,2.40
2023-03-27T22:13:36.352Z,2.40
2023-03-27T22:16:12.088Z,2.35
2023-03-27T22:18:39.694Z,2.53
2023-03-27T22:21:17.952Z,2.95
2023-03-27T22:23:45.685Z,3.15
2023-03-27T22:26:12.561Z,2.30
2023-03-27T22:28:39.288Z,2.55
2023-03-27T22:31:06.349Z,2.25
2023-03-27T22:33:33.167Z,2.72
2023-03-27T22:36:00.025Z,2.58
2023-03-27T22:38:32.963Z,2.78
2023-03-27T22:40:59.814Z,2.75
2023-03-27T22:43:28.683Z,2.97
2023-03-27T22:45:55.958Z,2.35
2023-03-27T22:48:22.694Z,2.50
2023-03-27T22:50:56.774Z,2.42
2023-03-27T22:53:24.795Z,2.17
2023-03-27T22:55:56.896Z,2.65
2023-03-27T22:58:24.411Z,2.35
2023-03-27T23:00:53.308Z,2.92
2023-03-27T23:03:20.615Z,2.80
2023-03-27T23:05:49.234Z,3.20
2023-03-27T23:08:17.900Z,2.55
2023-03-27T23:10:45.335Z,2.45
2023-03-27T23:13:13.068Z,2.17
2023-03-27T23:15:39.703Z,4.20
2023-03-27T23:18:06.565Z,2.90
2023-03-27T23:20:33.372Z,4.35
2023-03-27T23:23:00.016Z,3.78
2023-03-27T23:25:26.666Z,2.60
2023-03-27T23:27:53.371Z,2.45
2023-03-27T23:30:20.430Z,2.78
2023-03-27T23:32:47.137Z,3.38
2023-03-27T23:35:13.950Z,3.45
2023-03-27T23:37:40.581Z,3.65
2023-03-27T23:40:07.960Z,2.88
2023-03-27T23:42:34.702Z,2.85
2023-03-27T23:45:01.534Z,2.45
2023-03-27T23:47:28.246Z,3.25
2023-03-27T23:49:54.944Z,2.70
2023-03-27T23:52:21.666Z,3.53
2023-03-27T23:54:48.335Z,3.30
2023-03-27T23:57:14.979Z,2.88
2023-03-27T23:59:41.712Z,2.10
